Time;durP1;ratioP1;P1;durP2;ratioP2;P2;SDS_P1;SDS_P2;PMS_P1;PMS_P2;Temp;Humidity;BMP_temperature;BMP_pressure;BME280_temperature;BME280_humidity;BME280_pressure;Samples;Min_cycle;Max_cycle;Signal;HPM_P1;HPM_P2
2023/05/19 00:00:49;;;;;;;3.47;1.98;;;17.00;59.50;;;;;;10225052;29;20106;-55
2023/05/19 00:05:52;;;;;;;5.05;1.88;;;17.00;59.50;;;;;;10240987;28;20406;-55
2023/05/19 00:10:54;;;;;;;3.70;1.73;;;17.00;59.50;;;;;;10225323;28;20066;-55
2023/05/19 00:15:54;;;;;;;2.00;1.50;;;17.00;59.60;;;;;;10225356;29;20048;-55
2023/05/19 00:20:55;;;;;;;2.88;1.80;;;17.00;59.50;;;;;;10243191;28;20490;-54
2023/05/19 00:25:56;;;;;;;3.30;2.30;;;17.00;59.60;;;;;;10228655;28;21011;-54
2023/05/19 00:30:56;;;;;;;3.58;1.98;;;17.00;59.60;;;;;;10232894;29;20039;-55
2023/05/19 00:35:57;;;;;;;3.35;2.08;;;17.00;59.60;;;;;;10256669;28;20392;-56
2023/05/19 00:40:59;;;;;;;3.55;2.40;;;17.00;59.60;;;;;;10250057;28;20152;-54
2023/05/19 00:46:01;;;;;;;3.13;2.28;;;17.00;59.70;;;;;;10248030;29;20026;-54
2023/05/19 00:51:05;;;;;;;3.70;2.22;;;17.00;59.60;;;;;;10233780;28;20039;-55
2023/05/19 00:56:06;;;;;;;4.32;1.95;;;16.90;60.30;;;;;;10231962;28;20019;-55
2023/05/19 01:01:07;;;;;;;2.63;1.73;;;16.90;59.60;;;;;;10248891;29;20066;-55
2023/05/19 01:06:07;;;;;;;2.45;2.22;;;16.90;59.60;;;;;;10230836;29;20553;-55
2023/05/19 01:11:09;;;;;;;3.42;2.20;;;16.90;59.70;;;;;;10231186;28;20122;-56
2023/05/19 01:16:30;;;;;;;2.03;1.40;;;16.90;59.70;;;;;;10248037;28;20051;-56
2023/05/19 01:22:21;;;;;;;2.30;1.80;;;16.90;59.70;;;;;;10248334;28;20056;-56
2023/05/19 01:27:42;;;;;;;2.78;2.08;;;16.90;59.70;;;;;;10246416;28;20027;-54
2023/05/19 01:32:45;;;;;;;2.80;1.70;;;16.90;60.40;;;;;;10247503;28;20035;-53
2023/05/19 01:37:46;;;;;;;3.00;2.00;;;16.90;59.70;;;;;;10247858;28;20706;-55
2023/05/19 01:42:49;;;;;;;3.90;2.30;;;16.90;59.80;;;;;;10245929;28;20042;-55
2023/05/19 01:47:54;;;;;;;3.03;1.95;;;16.90;59.80;;;;;;10245143;28;20449;-53
2023/05/19 01:52:55;;;;;;;3.50;1.90;;;16.80;59.80;;;;;;10229443;28;20039;-55
2023/05/19 01:58:01;;;;;;;2.05;1.60;;;16.90;59.80;;;;;;10246328;28;20363;-54
2023/05/19 02:03:21;;;;;;;2.33;1.63;;;16.80;59.80;;;;;;10246298;28;20058;-55
2023/05/19 02:08:32;;;;;;;2.60;1.52;;;16.80;59.80;;;;;;10246388;28;20372;-55
2023/05/19 02:13:36;;;;;;;2.95;1.95;;;16.80;59.90;;;;;;10228662;29;20081;-55
2023/05/19 02:18:38;;;;;;;2.53;1.75;;;16.80;59.90;;;;;;10246045;28;20451;-54
2023/05/19 02:23:40;;;;;;;2.67;1.52;;;16.80;59.90;;;;;;10212864;29;20086;-56
2023/05/19 02:28:41;;;;;;;4.18;2.30;;;16.80;59.90;;;;;;10245194;28;20026;-56
2023/05/19 02:33:42;;;;;;;2.03;1.52;;;16.80;59.90;;;;;;10227909;29;20066;-55
2023/05/19 02:38:42;;;;;;;1.70;1.35;;;16.80;60.00;;;;;;10251825;28;20103;-55
2023/05/19 02:43:43;;;;;;;3.42;2.15;;;16.70;59.90;;;;;;10245076;28;20102;-55
2023/05/19 02:48:44;;;;;;;2.45;1.75;;;16.80;60.00;;;;;;10243589;28;20552;-55
2023/05/19 02:53:45;;;;;;;2.55;1.85;;;16.70;60.00;;;;;;10244572;28;20050;-54
2023/05/19 02:58:45;;;;;;;2.80;1.60;;;16.70;60.00;;;;;;10244647;28;20657;-55
2023/05/19 03:03:46;;;;;;;3.13;1.70;;;16.70;60.00;;;;;;10244507;29;20055;-55
2023/05/19 03:08:46;;;;;;;2.53;1.80;;;16.70;60.00;;;;;;10243045;28;20047;-55
2023/05/19 03:13:47;;;;;;;2.80;2.08;;;16.70;60.00;;;;;;10242618;29;20070;-55
2023/05/19 03:18:48;;;;;;;1.92;1.52;;;16.70;60.00;;;;;;10244096;28;20801;-55
2023/05/19 03:23:48;;;;;;;3.03;1.50;;;16.70;60.00;;;;;;10243251;28;20539;-55
2023/05/19 03:28:49;;;;;;;2.25;1.40;;;16.70;60.10;;;;;;10254627;28;20027;-55
2023/05/19 03:33:50;;;;;;;1.55;1.30;;;16.70;60.10;;;;;;10225772;28;20042;-55
2023/05/19 03:38:50;;;;;;;2.75;1.65;;;16.70;60.10;;;;;;10249257;28;20016;-55
2023/05/19 03:43:51;;;;;;;1.50;1.40;;;16.60;60.00;;;;;;10243308;29;20050;-55
2023/05/19 03:48:52;;;;;;;2.17;1.52;;;16.60;60.00;;;;;;10243118;29;20110;-56
2023/05/19 03:53:52;;;;;;;2.47;1.63;;;16.70;60.10;;;;;;10225710;28;20020;-54
2023/05/19 03:58:54;;;;;;;3.03;1.52;;;16.60;60.10;;;;;;10243344;28;20023;-53
2023/05/19 04:03:54;;;;;;;2.53;1.42;;;16.60;60.10;;;;;;10249489;28;20015;-56
2023/05/19 04:08:55;;;;;;;3.22;2.25;;;16.60;60.10;;;;;;10251207;28;20081;-55
2023/05/19 04:13:56;;;;;;;2.13;1.48;;;16.60;60.10;;;;;;10217070;29;20102;-54
2023/05/19 04:18:56;;;;;;;3.15;2.00;;;16.60;60.10;;;;;;10250383;28;20043;-55
2023/05/19 04:23:59;;;;;;;2.15;1.40;;;16.60;60.20;;;;;;10249211;28;20051;-56
2023/05/19 04:29:03;;;;;;;2.78;1.90;;;16.60;60.20;;;;;;10264795;28;20046;-56
2023/05/19 04:34:04;;;;;;;2.85;2.00;;;16.60;60.20;;;;;;10245142;28;20501;-56
2023/05/19 04:39:10;;;;;;;3.92;1.83;;;16.60;60.30;;;;;;10234204;29;20098;-55
2023/05/19 04:44:12;;;;;;;3.33;2.50;;;16.60;60.60;;;;;;10232779;28;20032;-55
2023/05/19 04:49:13;;;;;;;11.70;3.15;;;16.70;61.70;;;;;;10228655;29;20031;-56
2023/05/19 04:54:13;;;;;;;12.10;3.15;;;16.80;60.90;;;;;;10241881;28;20532;-56
2023/05/19 04:59:14;;;;;;;9.18;3.25;;;16.90;62.20;;;;;;10230939;29;20023;-57
2023/05/19 05:04:15;;;;;;;5.75;2.53;;;17.00;61.50;;;;;;10229354;28;20111;-57
2023/05/19 05:09:16;;;;;;;8.18;2.55;;;17.00;61.80;;;;;;10246026;28;20122;-54
2023/05/19 05:14:18;;;;;;;18.60;4.07;;;16.90;62.40;;;;;;10227990;29;20490;-57
2023/05/19 05:19:20;;;;;;;23.23;4.53;;;17.00;62.30;;;;;;10230945;28;20129;-54
2023/05/19 05:24:21;;;;;;;18.42;4.03;;;16.90;61.60;;;;;;10246710;29;20569;-57
2023/05/19 05:29:22;;;;;;;7.75;2.92;;;16.80;61.70;;;;;;10246875;28;20129;-56
2023/05/19 05:34:23;;;;;;;6.70;2.92;;;16.70;61.90;;;;;;10227542;28;20595;-55
2023/05/19 05:39:24;;;;;;;11.23;3.17;;;16.80;61.90;;;;;;10226688;28;20545;-55
2023/05/19 05:44:24;;;;;;;8.13;3.08;;;16.70;61.80;;;;;;10244598;29;20114;-54
2023/05/19 05:49:25;;;;;;;5.55;2.30;;;16.80;62.40;;;;;;10244418;28;20494;-56
2023/05/19 05:54:26;;;;;;;7.93;3.00;;;16.70;61.90;;;;;;10243465;28;20034;-55
2023/05/19 05:59:27;;;;;;;8.30;2.72;;;16.70;61.70;;;;;;10244022;28;20086;-54
2023/05/19 06:04:27;;;;;;;4.90;2.80;;;16.70;61.70;;;;;;10213242;28;20015;-55
2023/05/19 06:09:29;;;;;;;7.05;3.08;;;16.70;61.70;;;;;;10228893;28;20126;-58
2023/05/19 06:14:29;;;;;;;7.60;2.83;;;16.70;61.70;;;;;;10225806;29;20094;-60
2023/05/19 06:19:30;;;;;;;6.57;3.35;;;16.70;61.70;;;;;;10253403;28;20513;-57
2023/05/19 06:24:31;;;;;;;5.32;3.08;;;16.70;61.70;;;;;;10242484;28;20035;-59
2023/05/19 06:29:32;;;;;;;7.60;3.15;;;16.70;61.70;;;;;;10234458;28;20105;-59
2023/05/19 06:34:32;;;;;;;6.82;2.85;;;16.70;61.70;;;;;;10225132;29;20503;-59
2023/05/19 06:39:33;;;;;;;4.20;2.20;;;16.70;61.70;;;;;;10226807;29;20023;-56
2023/05/19 06:44:33;;;;;;;4.20;2.42;;;16.70;61.70;;;;;;10229244;29;20105;-59
2023/05/19 06:49:34;;;;;;;3.45;2.00;;;16.70;61.80;;;;;;10225844;28;20152;-60
2023/05/19 06:54:35;;;;;;;4.90;2.15;;;16.70;61.70;;;;;;10243686;29;20481;-60
2023/05/19 06:59:36;;;;;;;2.83;1.90;;;16.70;61.80;;;;;;10242679;28;20127;-57
2023/05/19 07:04:37;;;;;;;3.83;2.22;;;16.70;61.70;;;;;;10228099;28;20024;-58
2023/05/19 07:09:38;;;;;;;6.90;2.40;;;16.70;61.60;;;;;;10232991;28;20043;-60
2023/05/19 07:14:38;;;;;;;7.18;2.55;;;16.70;61.60;;;;;;10242438;28;20036;-60
2023/05/19 07:19:39;;;;;;;5.63;2.53;;;16.80;61.60;;;;;;10224931;29;20028;-60
2023/05/19 07:24:40;;;;;;;6.25;2.40;;;16.80;61.50;;;;;;10237587;29;20102;-60
2023/05/19 07:29:40;;;;;;;4.22;2.30;;;16.90;61.50;;;;;;10242397;28;20166;-59
2023/05/19 07:34:41;;;;;;;3.28;1.90;;;16.90;61.60;;;;;;10244464;28;20054;-60
2023/05/19 07:39:42;;;;;;;4.63;2.28;;;16.90;61.60;;;;;;10213164;29;20041;-60
2023/05/19 07:44:42;;;;;;;3.75;2.20;;;16.90;61.60;;;;;;10239568;28;20413;-58
2023/05/19 07:49:43;;;;;;;5.07;1.75;;;16.90;61.60;;;;;;10255271;29;20114;-59
2023/05/19 07:54:44;;;;;;;2.97;2.10;;;16.90;61.60;;;;;;10254830;28;20122;-60
2023/05/19 07:59:45;;;;;;;5.30;2.38;;;16.90;61.50;;;;;;10238239;29;20027;-58
2023/05/19 08:04:47;;;;;;;3.50;1.73;;;17.00;61.50;;;;;;10221461;29;20025;-57
2023/05/19 08:09:48;;;;;;;4.47;2.38;;;17.00;61.40;;;;;;10254642;28;20555;-56
2023/05/19 08:14:48;;;;;;;3.88;1.60;;;17.00;61.50;;;;;;10236408;29;20077;-57
2023/05/19 08:19:49;;;;;;;4.45;2.13;;;17.00;61.40;;;;;;10253814;28;20031;-58
2023/05/19 08:24:50;;;;;;;3.33;1.85;;;17.00;61.40;;;;;;10237044;29;20062;-58
2023/05/19 08:29:51;;;;;;;6.22;1.95;;;17.10;61.30;;;;;;10243683;28;20422;-60
2023/05/19 08:34:51;;;;;;;3.40;2.00;;;17.10;61.40;;;;;;10237280;28;20020;-60
2023/05/19 08:39:52;;;;;;;2.90;1.60;;;17.10;61.30;;;;;;10214434;29;20131;-60
2023/05/19 08:44:53;;;;;;;2.15;1.40;;;17.10;61.30;;;;;;10197574;29;20060;-60
2023/05/19 08:50:06;;;;;;;3.45;1.90;;;17.10;61.40;;;;;;10208226;29;20044;-59
2023/05/19 08:55:35;;;;;;;6.05;1.60;;;17.10;61.50;;;;;;10191969;29;20679;-59
2023/05/19 09:00:36;;;;;;;1.90;1.30;;;17.10;61.50;;;;;;10205874;29;20366;-57
2023/05/19 09:05:38;;;;;;;3.22;1.33;;;17.10;61.60;;;;;;10223074;29;20023;-59
2023/05/19 09:10:38;;;;;;;2.58;1.48;;;17.10;61.50;;;;;;10206017;29;20036;-59
2023/05/19 09:15:40;;;;;;;3.60;1.95;;;17.20;61.60;;;;;;10210389;29;20440;-58
2023/05/19 09:20:43;;;;;;;2.47;1.60;;;17.20;61.60;;;;;;10207572;29;20048;-59
2023/05/19 09:25:51;;;;;;;2.40;1.75;;;17.20;61.60;;;;;;10221437;29;20609;-60
2023/05/19 09:31:09;;;;;;;4.43;1.50;;;17.40;67.90;;;;;;10158892;29;20046;-60
2023/05/19 09:36:10;;;;;;;2.38;1.60;;;17.50;65.50;;;;;;10220531;29;20102;-59
2023/05/19 09:41:14;;;;;;;2.95;1.70;;;17.50;61.70;;;;;;10208146;29;20024;-56
2023/05/19 09:46:15;;;;;;;2.15;1.30;;;17.40;62.00;;;;;;10200130;29;20047;-58
2023/05/19 09:51:16;;;;;;;2.92;1.65;;;17.40;62.40;;;;;;10211885;29;20035;-60
2023/05/19 09:56:22;;;;;;;2.20;1.27;;;17.40;62.70;;;;;;10204065;29;20027;-60
2023/05/19 10:01:23;;;;;;;3.58;1.52;;;17.40;62.80;;;;;;10200872;29;20024;-63
2023/05/19 10:06:25;;;;;;;2.40;1.48;;;17.40;62.90;;;;;;10204667;29;20027;-60
2023/05/19 10:11:26;;;;;;;2.80;1.23;;;17.40;63.20;;;;;;10204312;29;20118;-60
2023/05/19 10:16:29;;;;;;;3.05;1.48;;;17.50;63.10;;;;;;10202659;29;20094;-60
2023/05/19 10:21:29;;;;;;;2.55;2.10;;;17.50;63.10;;;;;;10201534;29;20035;-59
2023/05/19 10:26:31;;;;;;;2.85;1.33;;;17.50;63.00;;;;;;10206701;29;20144;-60
2023/05/19 10:31:34;;;;;;;2.67;1.55;;;17.50;62.90;;;;;;10204390;29;20031;-60
2023/05/19 10:37:12;;;;;;;2.55;1.45;;;17.60;62.90;;;;;;10209324;29;20490;-57
2023/05/19 10:42:29;;;;;;;3.22;1.30;;;17.60;62.90;;;;;;10195382;29;20032;-60
2023/05/19 10:47:31;;;;;;;4.63;1.73;;;17.60;62.80;;;;;;10187939;29;20024;-57
2023/05/19 10:52:37;;;;;;;3.03;1.20;;;17.60;62.80;;;;;;10201647;29;20059;-60
2023/05/19 10:57:55;;;;;;;2.25;1.60;;;17.60;62.90;;;;;;10202369;29;20128;-60
2023/05/19 11:03:16;;;;;;;2.45;1.42;;;17.60;62.90;;;;;;10194548;29;20047;-60
2023/05/19 11:08:32;;;;;;;2.75;1.00;;;17.60;62.80;;;;;;10195545;29;20123;-60
2023/05/19 11:13:33;;;;;;;1.20;1.10;;;17.70;62.80;;;;;;10201138;29;20166;-60
2023/05/19 11:18:36;;;;;;;2.53;1.10;;;17.70;62.90;;;;;;10204087;29;20020;-59
2023/05/19 11:23:40;;;;;;;2.70;1.05;;;17.70;62.80;;;;;;10203788;29;20099;-56
2023/05/19 11:28:42;;;;;;;1.40;0.90;;;17.70;62.80;;;;;;10172026;29;20050;-60
2023/05/19 11:33:42;;;;;;;2.03;1.35;;;17.80;62.80;;;;;;10200447;29;20069;-55
2023/05/19 11:38:45;;;;;;;3.40;1.13;;;17.80;62.40;;;;;;10207395;29;20016;-56
2023/05/19 11:43:47;;;;;;;4.28;1.63;;;17.80;62.40;;;;;;10198829;29;20020;-56
2023/05/19 11:48:49;;;;;;;2.75;1.20;;;17.80;62.20;;;;;;10199835;29;20036;-56
2023/05/19 11:53:50;;;;;;;2.95;1.08;;;17.80;62.20;;;;;;10214553;28;20321;-59
2023/05/19 11:58:52;;;;;;;2.67;1.00;;;17.90;62.30;;;;;;10200577;29;20016;-57
2023/05/19 12:03:53;;;;;;;1.77;1.25;;;17.90;62.30;;;;;;10200496;29;20138;-60
2023/05/19 12:08:54;;;;;;;1.70;1.08;;;17.90;62.40;;;;;;10197909;29;20160;-56
2023/05/19 12:13:58;;;;;;;4.90;1.40;;;17.90;62.30;;;;;;10213603;29;20051;-59
2023/05/19 12:18:58;;;;;;;3.00;1.65;;;17.90;62.00;;;;;;10199369;29;20100;-60
2023/05/19 12:24:00;;;;;;;2.78;1.58;;;17.90;62.20;;;;;;10191270;29;20423;-60
2023/05/19 12:29:00;;;;;;;2.88;1.23;;;17.90;62.20;;;;;;10192310;29;20468;-62
2023/05/19 12:34:01;;;;;;;3.58;1.55;;;17.90;62.20;;;;;;10208323;29;20136;-59
2023/05/19 12:39:04;;;;;;;3.33;1.55;;;17.90;62.10;;;;;;10215645;29;20118;-60
2023/05/19 12:44:15;;;;;;;2.90;1.05;;;18.00;62.10;;;;;;10210768;29;20047;-57
2023/05/19 12:49:15;;;;;;;1.73;1.05;;;18.00;62.10;;;;;;10206942;29;20045;-60
2023/05/19 12:54:22;;;;;;;2.80;1.58;;;17.90;62.30;;;;;;10206801;29;20028;-59
2023/05/19 12:59:26;;;;;;;1.75;0.98;;;17.90;62.30;;;;;;10207977;29;20028;-60
2023/05/19 13:04:27;;;;;;;1.55;0.90;;;17.90;62.30;;;;;;10208877;29;20533;-60
2023/05/19 13:09:28;;;;;;;1.67;1.10;;;17.90;62.30;;;;;;10206644;29;20047;-59
2023/05/19 13:14:28;;;;;;;2.08;1.63;;;17.90;62.40;;;;;;10205631;29;20128;-60
2023/05/19 13:19:29;;;;;;;2.08;1.27;;;17.80;62.50;;;;;;10205788;29;20064;-60
2023/05/19 13:24:30;;;;;;;1.60;1.00;;;17.90;62.60;;;;;;10205720;29;20119;-60
2023/05/19 13:29:30;;;;;;;1.77;1.20;;;17.90;62.50;;;;;;10205581;29;20066;-61
2023/05/19 13:34:31;;;;;;;1.80;1.20;;;17.90;62.40;;;;;;10207901;29;20497;-57
2023/05/19 13:39:32;;;;;;;2.03;1.27;;;18.00;62.30;;;;;;10209367;28;20126;-60
2023/05/19 13:44:33;;;;;;;2.05;1.20;;;18.00;62.30;;;;;;10219887;29;20139;-58
2023/05/19 13:49:34;;;;;;;1.45;0.85;;;18.00;62.40;;;;;;10187217;29;20490;-60
2023/05/19 13:54:34;;;;;;;2.05;1.20;;;18.00;62.30;;;;;;10204958;29;20060;-56
2023/05/19 13:59:35;;;;;;;2.30;1.10;;;18.00;62.30;;;;;;10204566;29;20050;-58
2023/05/19 14:04:37;;;;;;;1.90;0.90;;;18.00;62.30;;;;;;10181807;29;20123;-58
2023/05/19 14:09:38;;;;;;;2.40;1.20;;;18.00;62.50;;;;;;10201688;28;20501;-60
2023/05/19 14:14:39;;;;;;;1.60;1.00;;;17.90;62.50;;;;;;10187921;29;20152;-60
2023/05/19 14:19:39;;;;;;;2.42;1.05;;;18.00;62.50;;;;;;10203792;29;20639;-60
2023/05/19 14:24:40;;;;;;;1.75;1.30;;;18.00;62.50;;;;;;10210102;29;20541;-60
2023/05/19 14:29:41;;;;;;;2.15;1.30;;;18.00;62.50;;;;;;10204329;29;20062;-58
2023/05/19 14:34:42;;;;;;;2.67;1.20;;;17.90;62.40;;;;;;10208060;29;20047;-60
2023/05/19 14:39:43;;;;;;;1.45;1.00;;;18.00;62.50;;;;;;10206001;28;20098;-60
2023/05/19 14:44:44;;;;;;;1.92;1.23;;;18.00;62.60;;;;;;10198694;29;20020;-58
2023/05/19 14:49:44;;;;;;;1.90;1.02;;;18.00;62.60;;;;;;10207313;29;20032;-60
2023/05/19 14:54:45;;;;;;;1.73;1.00;;;18.00;62.60;;;;;;10216839;28;20117;-60
2023/05/19 14:59:46;;;;;;;2.90;1.23;;;18.00;62.60;;;;;;10203645;29;20522;-60
2023/05/19 15:04:46;;;;;;;2.25;1.00;;;18.00;62.60;;;;;;10202155;29;20051;-59
2023/05/19 15:09:47;;;;;;;2.10;1.08;;;18.00;62.60;;;;;;10202055;29;20095;-57
2023/05/19 15:14:48;;;;;;;2.65;1.17;;;17.90;62.60;;;;;;10203383;29;20633;-58
2023/05/19 15:19:48;;;;;;;3.15;1.40;;;17.90;62.70;;;;;;10202603;29;20063;-60
2023/05/19 15:24:49;;;;;;;1.98;0.90;;;17.90;62.70;;;;;;10202755;29;20055;-60
2023/05/19 15:29:50;;;;;;;1.85;1.13;;;17.90;62.70;;;;;;10202137;29;20391;-60
2023/05/19 15:34:50;;;;;;;1.60;1.08;;;17.90;62.60;;;;;;10195695;29;20022;-60
2023/05/19 15:39:51;;;;;;;2.53;1.20;;;17.90;62.70;;;;;;10203017;28;20098;-60
2023/05/19 15:44:52;;;;;;;1.50;0.85;;;17.90;62.80;;;;;;10201654;29;20056;-60
2023/05/19 15:49:53;;;;;;;1.73;1.10;;;17.90;62.80;;;;;;10200879;29;20115;-60
2023/05/19 15:54:57;;;;;;;2.90;1.42;;;17.90;62.70;;;;;;10200654;29;20102;-58
2023/05/19 15:59:58;;;;;;;2.65;1.75;;;17.90;62.70;;;;;;10209144;29;20024;-59
2023/05/19 16:04:59;;;;;;;2.10;1.02;;;17.90;62.80;;;;;;10208712;29;20083;-60
2023/05/19 16:10:00;;;;;;;2.35;1.20;;;17.90;62.70;;;;;;10209449;29;20119;-60
2023/05/19 16:15:00;;;;;;;1.23;0.88;;;17.90;62.70;;;;;;10209250;29;20075;-60
2023/05/19 16:20:01;;;;;;;2.33;1.40;;;17.90;62.80;;;;;;10208556;29;20030;-59
2023/05/19 16:25:02;;;;;;;3.22;1.05;;;17.90;62.70;;;;;;10205459;29;20207;-58
2023/05/19 16:30:04;;;;;;;4.28;1.00;;;17.90;62.60;;;;;;10200880;29;20055;-58
2023/05/19 16:35:05;;;;;;;6.65;1.40;;;17.90;62.70;;;;;;10227577;29;20535;-57
2023/05/19 16:40:07;;;;;;;3.30;1.15;;;17.90;62.80;;;;;;10214472;28;20020;-57
2023/05/19 16:45:08;;;;;;;4.70;1.20;;;18.00;63.00;;;;;;10212997;28;20024;-59
2023/05/19 16:50:10;;;;;;;2.25;1.08;;;18.00;62.90;;;;;;10215983;29;20036;-56
2023/05/19 16:55:15;;;;;;;5.13;1.38;;;18.00;63.10;;;;;;10206030;29;20020;-58
2023/05/19 17:00:16;;;;;;;4.35;1.10;;;18.00;63.10;;;;;;10206735;29;20522;-55
2023/05/19 17:05:16;;;;;;;2.13;1.15;;;18.00;62.80;;;;;;10207962;29;20024;-57
2023/05/19 17:10:17;;;;;;;3.67;1.15;;;18.10;62.80;;;;;;10206432;29;20070;-58
2023/05/19 17:15:18;;;;;;;14.80;2.10;;;18.10;62.60;;;;;;10207129;29;20048;-56
2023/05/19 17:20:18;;;;;;;10.27;2.15;;;18.10;61.90;;;;;;10212395;29;20036;-57
2023/05/19 17:25:19;;;;;;;11.30;1.90;;;18.10;61.50;;;;;;10192511;29;20118;-59
2023/05/19 17:30:20;;;;;;;13.27;2.47;;;18.10;62.40;;;;;;10218580;29;20061;-58
2023/05/19 17:35:21;;;;;;;10.65;2.20;;;18.00;62.80;;;;;;10219561;28;20099;-58
2023/05/19 17:40:21;;;;;;;7.57;1.80;;;18.10;62.90;;;;;;10205642;29;20786;-55
2023/05/19 17:45:22;;;;;;;4.85;2.08;;;18.10;62.60;;;;;;10240596;28;20095;-55
2023/05/19 17:50:22;;;;;;;8.45;1.98;;;18.10;62.70;;;;;;10215047;29;20043;-55
2023/05/19 17:55:28;;;;;;;5.30;1.98;;;18.10;62.60;;;;;;10206599;29;20477;-57
2023/05/19 18:00:29;;;;;;;10.00;2.35;;;18.10;62.80;;;;;;10208552;29;20390;-56
2023/05/19 18:05:31;;;;;;;7.90;1.60;;;18.10;62.80;;;;;;10223712;29;20027;-57
2023/05/19 18:10:37;;;;;;;8.15;1.58;;;18.10;62.70;;;;;;10226193;29;20311;-56
2023/05/19 18:15:38;;;;;;;8.55;1.40;;;18.10;61.90;;;;;;10217220;29;20097;-54
2023/05/19 18:20:40;;;;;;;6.55;1.80;;;18.30;62.00;;;;;;10208431;28;20045;-56
2023/05/19 18:25:47;;;;;;;11.75;1.75;;;18.10;61.70;;;;;;10239698;28;20019;-55
2023/05/19 18:31:09;;;;;;;6.30;1.80;;;18.00;62.60;;;;;;10240130;29;20058;-54
2023/05/19 18:36:10;;;;;;;6.40;2.20;;;18.00;62.80;;;;;;10209150;28;20135;-55
2023/05/19 18:41:11;;;;;;;5.78;1.90;;;18.00;63.00;;;;;;10238874;29;20062;-55
2023/05/19 18:46:12;;;;;;;6.75;2.33;;;18.00;63.10;;;;;;10234528;28;20142;-55
2023/05/19 18:51:14;;;;;;;5.18;1.50;;;18.00;63.00;;;;;;10227140;28;20031;-53
2023/05/19 18:56:25;;;;;;;4.63;1.33;;;18.00;63.10;;;;;;10229975;28;20008;-53
2023/05/19 19:01:26;;;;;;;7.30;1.80;;;18.00;63.10;;;;;;10240094;28;20030;-55
2023/05/19 19:06:27;;;;;;;5.10;1.92;;;18.00;63.30;;;;;;10241443;28;20070;-54
2023/05/19 19:11:28;;;;;;;3.83;1.50;;;18.00;63.40;;;;;;10243174;28;20033;-55
2023/05/19 19:16:28;;;;;;;8.00;1.98;;;18.00;63.40;;;;;;10239444;28;20126;-55
2023/05/19 19:21:30;;;;;;;3.97;1.95;;;18.00;63.60;;;;;;10249872;28;20473;-54
2023/05/19 19:26:31;;;;;;;3.92;1.63;;;18.00;63.20;;;;;;10263400;28;20446;-54
2023/05/19 19:31:32;;;;;;;3.38;1.55;;;18.00;63.40;;;;;;10260971;28;20058;-55
2023/05/19 19:36:32;;;;;;;3.30;1.73;;;17.90;63.20;;;;;;10243762;28;20035;-54
2023/05/19 19:41:33;;;;;;;4.32;2.03;;;17.90;63.20;;;;;;10246760;28;20033;-51
2023/05/19 19:46:34;;;;;;;3.03;1.35;;;17.90;63.30;;;;;;10228282;28;20147;-54
2023/05/19 19:51:35;;;;;;;3.47;1.58;;;17.90;63.20;;;;;;10239458;28;20032;-54
2023/05/19 19:56:35;;;;;;;4.68;1.83;;;17.90;63.10;;;;;;10241285;28;20094;-55
2023/05/19 20:01:36;;;;;;;4.82;1.48;;;17.80;63.10;;;;;;10242999;28;20051;-55
2023/05/19 20:06:37;;;;;;;2.75;1.48;;;17.80;63.10;;;;;;10241120;28;20072;-53
2023/05/19 20:11:37;;;;;;;2.42;1.15;;;17.80;63.20;;;;;;10276157;28;20397;-53
2023/05/19 20:16:39;;;;;;;2.13;1.15;;;17.80;63.10;;;;;;10281975;28;20126;-54
2023/05/19 20:21:40;;;;;;;3.15;1.60;;;17.80;63.10;;;;;;10282462;28;20076;-55
2023/05/19 20:26:40;;;;;;;2.40;1.23;;;17.80;63.00;;;;;;10259262;28;20082;-54
2023/05/19 20:31:41;;;;;;;2.17;1.00;;;17.80;63.10;;;;;;10241867;29;20122;-53
2023/05/19 20:36:42;;;;;;;2.40;1.10;;;17.80;63.00;;;;;;10254899;28;20417;-56
2023/05/19 20:41:42;;;;;;;2.50;1.23;;;17.80;63.20;;;;;;10226346;28;20113;-53
2023/05/19 20:46:43;;;;;;;3.30;1.50;;;17.80;63.00;;;;;;10248884;28;20089;-55
2023/05/19 20:51:44;;;;;;;2.78;1.15;;;17.70;62.90;;;;;;10266460;28;20114;-55
2023/05/19 20:56:45;;;;;;;2.65;1.85;;;17.80;63.00;;;;;;10288744;28;20058;-54
2023/05/19 21:01:46;;;;;;;3.25;1.55;;;17.70;63.00;;;;;;10277183;28;20019;-53
2023/05/19 21:06:46;;;;;;;3.67;1.58;;;17.80;63.00;;;;;;10288498;28;20034;-54
2023/05/19 21:11:47;;;;;;;4.70;1.20;;;17.70;63.00;;;;;;10288146;28;20071;-54
2023/05/19 21:16:49;;;;;;;1.92;1.30;;;17.70;63.00;;;;;;10287640;28;20453;-55
2023/05/19 21:21:50;;;;;;;1.92;1.30;;;17.70;62.90;;;;;;10261523;28;20019;-55
2023/05/19 21:26:50;;;;;;;2.25;1.20;;;17.70;62.90;;;;;;10273291;28;20055;-54
2023/05/19 21:31:54;;;;;;;1.95;1.10;;;17.70;63.00;;;;;;10260726;28;20051;-54
2023/05/19 21:36:55;;;;;;;1.42;1.20;;;17.70;63.20;;;;;;10254191;28;20025;-54
2023/05/19 21:41:56;;;;;;;2.35;1.30;;;17.70;63.20;;;;;;10247331;28;20585;-54
2023/05/19 21:46:56;;;;;;;2.28;1.30;;;17.70;63.20;;;;;;10241719;28;20518;-55
2023/05/19 21:51:57;;;;;;;2.60;1.58;;;17.70;63.10;;;;;;10248516;28;20119;-55
2023/05/19 21:56:58;;;;;;;2.40;1.30;;;17.70;63.10;;;;;;10280025;28;20034;-54
2023/05/19 22:01:58;;;;;;;3.33;1.05;;;17.70;63.10;;;;;;10254739;28;20035;-55
2023/05/19 22:06:59;;;;;;;1.60;1.20;;;17.70;63.00;;;;;;10245604;28;20031;-54
2023/05/19 22:12:00;;;;;;;2.55;1.25;;;17.70;63.00;;;;;;10228594;29;20751;-54
2023/05/19 22:17:01;;;;;;;1.65;1.25;;;17.70;63.00;;;;;;10227658;29;20537;-55
2023/05/19 22:22:01;;;;;;;2.17;1.30;;;17.70;63.00;;;;;;10228274;29;20535;-55
2023/05/19 22:27:02;;;;;;;2.35;1.50;;;17.70;62.90;;;;;;10245447;28;20106;-55
2023/05/19 22:32:06;;;;;;;2.50;1.30;;;17.60;62.80;;;;;;10244830;28;20431;-54
2023/05/19 22:37:07;;;;;;;3.58;1.42;;;17.60;62.90;;;;;;10251793;28;20106;-54
2023/05/19 22:42:07;;;;;;;1.63;1.10;;;17.60;62.90;;;;;;10244830;29;20019;-54
2023/05/19 22:47:12;;;;;;;2.17;1.13;;;17.60;62.80;;;;;;10227051;28;20153;-55
2023/05/19 22:52:12;;;;;;;2.75;1.10;;;17.60;62.80;;;;;;10258772;28;20051;-56
2023/05/19 22:57:13;;;;;;;1.55;1.20;;;17.60;62.70;;;;;;10243958;28;20114;-54
2023/05/19 23:02:14;;;;;;;2.08;1.10;;;17.60;62.70;;;;;;10243968;28;20102;-55
2023/05/19 23:07:14;;;;;;;2.33;1.10;;;17.60;62.80;;;;;;10281286;28;20117;-54
2023/05/19 23:12:15;;;;;;;3.67;1.50;;;17.60;62.80;;;;;;10283390;28;20635;-53
2023/05/19 23:17:16;;;;;;;2.17;1.20;;;17.60;62.80;;;;;;10256761;28;20043;-55
2023/05/19 23:22:16;;;;;;;1.80;1.02;;;17.60;62.80;;;;;;10226336;29;20058;-54
2023/05/19 23:27:17;;;;;;;2.10;1.90;;;17.60;62.70;;;;;;10243383;29;20031;-53
2023/05/19 23:32:18;;;;;;;3.92;1.70;;;17.60;62.70;;;;;;10243291;28;20078;-55
2023/05/19 23:37:18;;;;;;;2.88;1.30;;;17.60;62.70;;;;;;10233254;28;20513;-54
2023/05/19 23:42:19;;;;;;;2.45;1.08;;;17.60;62.60;;;;;;10243061;29;20170;-55
2023/05/19 23:47:20;;;;;;;2.28;1.55;;;17.60;63.30;;;;;;10242275;28;20085;-53
2023/05/19 23:52:20;;;;;;;3.95;1.00;;;17.50;62.60;;;;;;10247610;28;20182;-55
2023/05/19 23:57:21;;;;;;;3.05;1.20;;;17.60;62.70;;;;;;10282795;28;20458;-53
